sensor_id;sensor_type;location;lat;lon;timestamp;pressure;altitude;pressure_sealevel;temperature;humidity
40918;BME280;26644;50.248;19.032;2022-10-26T00:00:12;98525.41;;;9.41;91.97
40918;BME280;26644;50.248;19.032;2022-10-26T00:03:15;98519.06;;;9.30;92.60
40918;BME280;26644;50.248;19.032;2022-10-26T00:06:20;98523.44;;;9.31;92.60
40918;BME280;26644;50.248;19.032;2022-10-26T00:09:24;98504.78;;;9.18;92.06
40918;BME280;26644;50.248;19.032;2022-10-26T00:12:26;98519.03;;;9.20;92.21
40918;BME280;26644;50.248;19.032;2022-10-26T00:15:28;98514.56;;;9.03;91.89
40918;BME280;26644;50.248;19.032;2022-10-26T00:18:30;98528.53;;;9.02;92.13
40918;BME280;26644;50.248;19.032;2022-10-26T00:21:33;98527.34;;;8.87;92.29
40918;BME280;26644;50.248;19.032;2022-10-26T00:24:35;98535.81;;;8.81;92.63
40918;BME280;26644;50.248;19.032;2022-10-26T00:27:37;98536.34;;;8.77;92.81
40918;BME280;26644;50.248;19.032;2022-10-26T00:30:39;98532.53;;;8.78;92.90
40918;BME280;26644;50.248;19.032;2022-10-26T00:33:41;98531.38;;;8.74;92.60
40918;BME280;26644;50.248;19.032;2022-10-26T00:36:44;98537.38;;;8.71;92.70
40918;BME280;26644;50.248;19.032;2022-10-26T00:39:46;98518.97;;;8.56;92.50
40918;BME280;26644;50.248;19.032;2022-10-26T00:42:47;98512.38;;;8.52;92.99
40918;BME280;26644;50.248;19.032;2022-10-26T00:45:50;98514.28;;;8.52;93.40
40918;BME280;26644;50.248;19.032;2022-10-26T00:48:55;98511.25;;;8.48;93.21
40918;BME280;26644;50.248;19.032;2022-10-26T00:51:59;98525.41;;;8.40;93.49
40918;BME280;26644;50.248;19.032;2022-10-26T00:55:03;98528.31;;;8.23;93.30
40918;BME280;26644;50.248;19.032;2022-10-26T00:58:06;98520.31;;;8.16;93.84
40918;BME280;26644;50.248;19.032;2022-10-26T01:01:09;98519.44;;;8.10;93.87
40918;BME280;26644;50.248;19.032;2022-10-26T01:04:12;98510.38;;;8.05;94.05
40918;BME280;26644;50.248;19.032;2022-10-26T01:07:15;98502.09;;;7.94;94.12
40918;BME280;26644;50.248;19.032;2022-10-26T01:10:17;98516.13;;;8.03;94.32
40918;BME280;26644;50.248;19.032;2022-10-26T01:13:19;98519.13;;;8.07;94.75
40918;BME280;26644;50.248;19.032;2022-10-26T01:16:41;98524.59;;;8.07;94.35
40918;BME280;26644;50.248;19.032;2022-10-26T01:20:16;98519.06;;;7.97;94.09
40918;BME280;26644;50.248;19.032;2022-10-26T01:23:27;98518.72;;;7.88;94.55
40918;BME280;26644;50.248;19.032;2022-10-26T01:26:56;98521.41;;;7.83;94.84
40918;BME280;26644;50.248;19.032;2022-10-26T01:30:26;98518.38;;;7.79;94.84
40918;BME280;26644;50.248;19.032;2022-10-26T01:33:32;98465.88;;;7.50;94.80
40918;BME280;26644;50.248;19.032;2022-10-26T01:36:41;98513.63;;;7.69;94.95
40918;BME280;26644;50.248;19.032;2022-10-26T01:39:47;98515.50;;;7.64;94.90
40918;BME280;26644;50.248;19.032;2022-10-26T01:42:52;98514.63;;;7.58;95.22
40918;BME280;26644;50.248;19.032;2022-10-26T01:45:57;98493.16;;;7.44;95.07
40918;BME280;26644;50.248;19.032;2022-10-26T01:49:05;98518.97;;;7.59;95.82
40918;BME280;26644;50.248;19.032;2022-10-26T01:52:09;98517.38;;;7.63;95.54
40918;BME280;26644;50.248;19.032;2022-10-26T01:55:40;98516.88;;;7.66;95.18
40918;BME280;26644;50.248;19.032;2022-10-26T01:59:05;98512.28;;;7.72;95.56
40918;BME280;26644;50.248;19.032;2022-10-26T02:02:39;98524.34;;;7.76;95.17
40918;BME280;26644;50.248;19.032;2022-10-26T02:05:51;98530.13;;;7.80;95.15
40918;BME280;26644;50.248;19.032;2022-10-26T02:09:03;98527.13;;;7.81;94.91
40918;BME280;26644;50.248;19.032;2022-10-26T02:12:13;98529.31;;;7.79;94.57
40918;BME280;26644;50.248;19.032;2022-10-26T02:15:20;98527.41;;;7.80;95.03
40918;BME280;26644;50.248;19.032;2022-10-26T02:18:29;98507.13;;;7.75;94.95
40918;BME280;26644;50.248;19.032;2022-10-26T02:21:37;98500.53;;;7.71;95.18
40918;BME280;26644;50.248;19.032;2022-10-26T02:24:41;98525.03;;;7.93;95.10
40918;BME280;26644;50.248;19.032;2022-10-26T02:27:48;98525.84;;;7.89;94.55
40918;BME280;26644;50.248;19.032;2022-10-26T02:30:53;98526.88;;;7.83;94.45
40918;BME280;26644;50.248;19.032;2022-10-26T02:34:01;98523.25;;;7.77;94.50
40918;BME280;26644;50.248;19.032;2022-10-26T02:37:05;98522.94;;;7.73;94.68
40918;BME280;26644;50.248;19.032;2022-10-26T02:40:17;98519.41;;;7.73;94.82
40918;BME280;26644;50.248;19.032;2022-10-26T02:43:21;98441.59;;;7.21;94.91
40918;BME280;26644;50.248;19.032;2022-10-26T02:46:25;98526.25;;;7.75;95.26
40918;BME280;26644;50.248;19.032;2022-10-26T02:49:29;98529.53;;;7.77;95.05
40918;BME280;26644;50.248;19.032;2022-10-26T02:52:36;98506.22;;;7.65;95.35
40918;BME280;26644;50.248;19.032;2022-10-26T02:55:47;98526.88;;;7.83;95.54
40918;BME280;26644;50.248;19.032;2022-10-26T02:58:54;98529.97;;;7.91;95.87
40918;BME280;26644;50.248;19.032;2022-10-26T03:01:57;98525.09;;;7.99;95.81
40918;BME280;26644;50.248;19.032;2022-10-26T03:05:08;98526.78;;;8.05;95.47
40918;BME280;26644;50.248;19.032;2022-10-26T03:08:11;98522.44;;;8.09;95.55
40918;BME280;26644;50.248;19.032;2022-10-26T03:11:13;98526.63;;;8.17;95.47
40918;BME280;26644;50.248;19.032;2022-10-26T03:14:14;98526.66;;;8.22;95.39
40918;BME280;26644;50.248;19.032;2022-10-26T03:17:16;98538.47;;;8.27;95.46
40918;BME280;26644;50.248;19.032;2022-10-26T03:20:19;98515.94;;;8.15;95.45
40918;BME280;26644;50.248;19.032;2022-10-26T03:23:21;98525.59;;;8.28;95.14
40918;BME280;26644;50.248;19.032;2022-10-26T03:26:23;98541.25;;;8.33;95.05
40918;BME280;26644;50.248;19.032;2022-10-26T03:29:25;98536.03;;;8.31;95.24
40918;BME280;26644;50.248;19.032;2022-10-26T03:32:27;98543.16;;;8.32;95.63
40918;BME280;26644;50.248;19.032;2022-10-26T03:35:30;98541.28;;;8.38;95.67
40918;BME280;26644;50.248;19.032;2022-10-26T03:38:32;98541.00;;;8.39;95.29
40918;BME280;26644;50.248;19.032;2022-10-26T03:41:34;98546.22;;;8.41;94.88
40918;BME280;26644;50.248;19.032;2022-10-26T03:44:36;98555.78;;;8.38;94.65
40918;BME280;26644;50.248;19.032;2022-10-26T03:47:45;98543.41;;;8.31;95.19
40918;BME280;26644;50.248;19.032;2022-10-26T03:50:48;98545.63;;;8.34;95.68
40918;BME280;26644;50.248;19.032;2022-10-26T03:53:50;98543.19;;;8.37;95.22
40918;BME280;26644;50.248;19.032;2022-10-26T03:56:52;98547.03;;;8.36;94.89
40918;BME280;26644;50.248;19.032;2022-10-26T03:59:54;98548.09;;;8.35;94.65
40918;BME280;26644;50.248;19.032;2022-10-26T04:02:57;98528.56;;;8.21;94.72
40918;BME280;26644;50.248;19.032;2022-10-26T04:06:01;98555.22;;;8.36;94.76
40918;BME280;26644;50.248;19.032;2022-10-26T04:09:03;98536.53;;;8.28;94.43
40918;BME280;26644;50.248;19.032;2022-10-26T04:12:07;98523.88;;;8.17;94.09
40918;BME280;26644;50.248;19.032;2022-10-26T04:15:09;98551.88;;;8.29;94.11
40918;BME280;26644;50.248;19.032;2022-10-26T04:18:11;98549.66;;;8.26;94.70
40918;BME280;26644;50.248;19.032;2022-10-26T04:21:14;98551.81;;;8.24;95.11
40918;BME280;26644;50.248;19.032;2022-10-26T04:24:16;98555.38;;;8.19;94.73
40918;BME280;26644;50.248;19.032;2022-10-26T04:27:18;98510.19;;;7.84;94.47
40918;BME280;26644;50.248;19.032;2022-10-26T04:30:20;98550.31;;;8.06;94.86
40918;BME280;26644;50.248;19.032;2022-10-26T04:33:21;98562.59;;;8.03;95.08
40918;BME280;26644;50.248;19.032;2022-10-26T04:36:25;98558.47;;;8.01;95.23
40918;BME280;26644;50.248;19.032;2022-10-26T04:39:26;98561.47;;;7.99;95.28
40918;BME280;26644;50.248;19.032;2022-10-26T04:42:28;98560.38;;;8.00;95.30
40918;BME280;26644;50.248;19.032;2022-10-26T04:45:33;98557.63;;;8.00;95.26
40918;BME280;26644;50.248;19.032;2022-10-26T04:48:35;98561.47;;;7.99;95.31
40918;BME280;26644;50.248;19.032;2022-10-26T04:51:38;98559.81;;;7.98;95.86
40918;BME280;26644;50.248;19.032;2022-10-26T04:54:40;98551.78;;;7.86;95.94
40918;BME280;26644;50.248;19.032;2022-10-26T04:57:43;98556.22;;;7.92;95.68
40918;BME280;26644;50.248;19.032;2022-10-26T05:00:45;98559.19;;;7.91;95.38
40918;BME280;26644;50.248;19.032;2022-10-26T05:03:48;98555.38;;;7.92;95.65
40918;BME280;26644;50.248;19.032;2022-10-26T05:06:52;98559.19;;;7.91;95.20
40918;BME280;26644;50.248;19.032;2022-10-26T05:09:54;98562.19;;;7.89;94.91
40918;BME280;26644;50.248;19.032;2022-10-26T05:12:57;98563.53;;;7.87;95.12
40918;BME280;26644;50.248;19.032;2022-10-26T05:15:59;98557.50;;;7.85;95.07
40918;BME280;26644;50.248;19.032;2022-10-26T05:19:01;98467.28;;;7.25;95.32
40918;BME280;26644;50.248;19.032;2022-10-26T05:22:05;98559.66;;;7.83;95.33
40918;BME280;26644;50.248;19.032;2022-10-26T05:25:07;98560.47;;;7.78;94.80
40918;BME280;26644;50.248;19.032;2022-10-26T05:28:11;98537.34;;;7.64;95.18
40918;BME280;26644;50.248;19.032;2022-10-26T05:31:13;98564.53;;;7.75;95.14
40918;BME280;26644;50.248;19.032;2022-10-26T05:34:15;98560.59;;;7.66;94.82
40918;BME280;26644;50.248;19.032;2022-10-26T05:37:18;98566.63;;;7.68;95.06
40918;BME280;26644;50.248;19.032;2022-10-26T05:40:21;98569.28;;;7.63;95.05
40918;BME280;26644;50.248;19.032;2022-10-26T05:43:23;98567.41;;;7.64;95.85
40918;BME280;26644;50.248;19.032;2022-10-26T05:46:25;98551.69;;;7.49;95.95
40918;BME280;26644;50.248;19.032;2022-10-26T05:49:26;98560.81;;;7.59;96.44
40918;BME280;26644;50.248;19.032;2022-10-26T05:52:29;98555.63;;;7.63;96.01
40918;BME280;26644;50.248;19.032;2022-10-26T05:55:32;98571.34;;;7.73;96.07
40918;BME280;26644;50.248;19.032;2022-10-26T05:58:34;98568.59;;;7.73;96.53
40918;BME280;26644;50.248;19.032;2022-10-26T06:01:53;98557.94;;;7.71;96.40
40918;BME280;26644;50.248;19.032;2022-10-26T06:05:02;98566.75;;;7.78;96.17
40918;BME280;26644;50.248;19.032;2022-10-26T06:08:09;98575.59;;;7.91;96.37
40918;BME280;26644;50.248;19.032;2022-10-26T06:11:11;98576.19;;;7.93;96.47
40918;BME280;26644;50.248;19.032;2022-10-26T06:14:14;98566.78;;;7.84;96.59
40918;BME280;26644;50.248;19.032;2022-10-26T06:17:35;98588.56;;;8.01;96.28
40918;BME280;26644;50.248;19.032;2022-10-26T06:20:49;98582.00;;;8.02;96.24
40918;BME280;26644;50.248;19.032;2022-10-26T06:23:57;98592.41;;;8.05;96.56
40918;BME280;26644;50.248;19.032;2022-10-26T06:27:07;98597.38;;;8.08;96.80
40918;BME280;26644;50.248;19.032;2022-10-26T06:30:12;98595.53;;;8.14;97.27
40918;BME280;26644;50.248;19.032;2022-10-26T06:33:14;98609.84;;;8.26;97.40
40918;BME280;26644;50.248;19.032;2022-10-26T06:36:20;98605.00;;;8.38;97.08
40918;BME280;26644;50.248;19.032;2022-10-26T06:39:26;98583.63;;;8.30;96.95
40918;BME280;26644;50.248;19.032;2022-10-26T06:42:30;98613.94;;;8.61;96.86
40918;BME280;26644;50.248;19.032;2022-10-26T06:45:33;98621.97;;;8.73;96.85
40918;BME280;26644;50.248;19.032;2022-10-26T06:48:46;98618.78;;;8.86;96.80
40918;BME280;26644;50.248;19.032;2022-10-26T06:51:52;98624.94;;;8.99;96.63
40918;BME280;26644;50.248;19.032;2022-10-26T06:54:59;98626.91;;;9.08;96.44
40918;BME280;26644;50.248;19.032;2022-10-26T06:58:01;98628.06;;;9.18;96.40
40918;BME280;26644;50.248;19.032;2022-10-26T07:01:04;98631.69;;;9.34;96.95
40918;BME280;26644;50.248;19.032;2022-10-26T07:04:06;98634.78;;;9.53;96.92
40918;BME280;26644;50.248;19.032;2022-10-26T07:07:11;98630.78;;;9.76;97.28
40918;BME280;26644;50.248;19.032;2022-10-26T07:10:14;98633.84;;;10.00;96.76
40918;BME280;26644;50.248;19.032;2022-10-26T07:13:16;98622.09;;;10.15;96.76
40918;BME280;26644;50.248;19.032;2022-10-26T07:16:18;98638.31;;;10.42;96.15
40918;BME280;26644;50.248;19.032;2022-10-26T07:19:20;98642.47;;;10.66;95.54
40918;BME280;26644;50.248;19.032;2022-10-26T07:22:22;98626.25;;;10.69;95.59
40918;BME280;26644;50.248;19.032;2022-10-26T07:25:26;98648.22;;;11.05;95.37
40918;BME280;26644;50.248;19.032;2022-10-26T07:28:28;98652.28;;;11.28;94.97
40918;BME280;26644;50.248;19.032;2022-10-26T07:31:30;98650.56;;;11.53;94.70
40918;BME280;26644;50.248;19.032;2022-10-26T07:34:32;98643.28;;;11.78;94.83
40918;BME280;26644;50.248;19.032;2022-10-26T07:37:33;98647.19;;;12.27;95.10
40918;BME280;26644;50.248;19.032;2022-10-26T07:40:36;98663.88;;;13.10;94.78
40918;BME280;26644;50.248;19.032;2022-10-26T07:43:38;98664.00;;;13.77;91.80
40918;BME280;26644;50.248;19.032;2022-10-26T07:46:40;98663.94;;;14.45;90.30
40918;BME280;26644;50.248;19.032;2022-10-26T07:49:42;98640.88;;;15.02;87.80
40918;BME280;26644;50.248;19.032;2022-10-26T07:52:44;98672.56;;;15.84;86.06
40918;BME280;26644;50.248;19.032;2022-10-26T07:55:52;98677.66;;;16.55;84.23
40918;BME280;26644;50.248;19.032;2022-10-26T07:58:55;98676.50;;;17.24;83.52
40918;BME280;26644;50.248;19.032;2022-10-26T08:01:57;98682.69;;;17.93;81.84
40918;BME280;26644;50.248;19.032;2022-10-26T08:05:08;98680.38;;;18.62;81.25
40918;BME280;26644;50.248;19.032;2022-10-26T08:08:10;98681.75;;;19.38;79.84
40918;BME280;26644;50.248;19.032;2022-10-26T08:11:12;98618.41;;;19.65;78.11
40918;BME280;26644;50.248;19.032;2022-10-26T08:14:14;98692.19;;;20.69;78.45
40918;BME280;26644;50.248;19.032;2022-10-26T08:17:16;98691.75;;;21.34;76.53
40918;BME280;26644;50.248;19.032;2022-10-26T08:20:21;98706.22;;;21.95;75.07
40918;BME280;26644;50.248;19.032;2022-10-26T08:23:23;98701.34;;;22.69;73.92
40918;BME280;26644;50.248;19.032;2022-10-26T08:26:25;98692.66;;;23.60;70.99
40918;BME280;26644;50.248;19.032;2022-10-26T08:29:26;98697.91;;;23.93;68.94
40918;BME280;26644;50.248;19.032;2022-10-26T08:32:28;98696.94;;;24.37;66.50
40918;BME280;26644;50.248;19.032;2022-10-26T08:35:32;98704.13;;;24.89;61.79
40918;BME280;26644;50.248;19.032;2022-10-26T08:38:34;98701.53;;;25.20;59.08
40918;BME280;26644;50.248;19.032;2022-10-26T08:41:37;98690.47;;;25.07;57.98
40918;BME280;26644;50.248;19.032;2022-10-26T08:44:44;98686.63;;;24.77;57.66
40918;BME280;26644;50.248;19.032;2022-10-26T08:47:50;98689.75;;;24.71;56.08
40918;BME280;26644;50.248;19.032;2022-10-26T08:50:58;98697.25;;;24.32;54.69
40918;BME280;26644;50.248;19.032;2022-10-26T08:54:04;98692.06;;;23.98;55.43
40918;BME280;26644;50.248;19.032;2022-10-26T08:57:17;98697.28;;;23.68;55.13
40918;BME280;26644;50.248;19.032;2022-10-26T09:00:21;98669.97;;;23.33;55.30
40918;BME280;26644;50.248;19.032;2022-10-26T09:03:24;98691.38;;;23.57;55.57
40918;BME280;26644;50.248;19.032;2022-10-26T09:06:36;98697.28;;;23.68;54.69
40918;BME280;26644;50.248;19.032;2022-10-26T09:09:49;98696.75;;;23.94;54.64
40918;BME280;26644;50.248;19.032;2022-10-26T09:12:56;98674.06;;;23.99;53.83
40918;BME280;26644;50.248;19.032;2022-10-26T09:16:05;98699.75;;;24.01;53.01
40918;BME280;26644;50.248;19.032;2022-10-26T09:19:27;98701.28;;;24.15;51.82
40918;BME280;26644;50.248;19.032;2022-10-26T09:22:39;98691.84;;;24.23;51.52
40918;BME280;26644;50.248;19.032;2022-10-26T09:25:45;98698.13;;;24.00;51.93
40918;BME280;26644;50.248;19.032;2022-10-26T09:28:50;98704.88;;;24.15;52.76
40918;BME280;26644;50.248;19.032;2022-10-26T09:31:53;98706.53;;;24.00;51.73
40918;BME280;26644;50.248;19.032;2022-10-26T09:34:58;98696.56;;;23.55;51.46
40918;BME280;26644;50.248;19.032;2022-10-26T09:38:09;98707.03;;;23.42;51.98
40918;BME280;26644;50.248;19.032;2022-10-26T09:41:21;98689.66;;;23.08;54.02
40918;BME280;26644;50.248;19.032;2022-10-26T09:44:27;98670.56;;;22.69;52.87
40918;BME280;26644;50.248;19.032;2022-10-26T09:47:34;98702.81;;;22.14;52.94
40918;BME280;26644;50.248;19.032;2022-10-26T09:50:39;98697.84;;;21.36;53.54
40918;BME280;26644;50.248;19.032;2022-10-26T09:53:42;98693.69;;;20.46;54.02
40918;BME280;26644;50.248;19.032;2022-10-26T09:56:47;98687.56;;;19.63;54.89
40918;BME280;26644;50.248;19.032;2022-10-26T09:59:51;98690.66;;;18.96;56.05
40918;BME280;26644;50.248;19.032;2022-10-26T10:02:56;98685.88;;;18.26;57.08
40918;BME280;26644;50.248;19.032;2022-10-26T10:06:15;98687.53;;;17.79;58.36
40918;BME280;26644;50.248;19.032;2022-10-26T10:09:19;98664.81;;;17.36;58.96
40918;BME280;26644;50.248;19.032;2022-10-26T10:12:21;98677.22;;;17.07;59.53
40918;BME280;26644;50.248;19.032;2022-10-26T10:15:24;98644.22;;;16.74;60.14
40918;BME280;26644;50.248;19.032;2022-10-26T10:18:26;98678.88;;;16.86;60.53
40918;BME280;26644;50.248;19.032;2022-10-26T10:21:33;98676.16;;;16.72;61.04
40918;BME280;26644;50.248;19.032;2022-10-26T10:24:39;98672.00;;;16.60;61.63
40918;BME280;26644;50.248;19.032;2022-10-26T10:27:51;98652.66;;;16.33;61.76
40918;BME280;26644;50.248;19.032;2022-10-26T10:30:55;98680.66;;;16.31;61.91
40918;BME280;26644;50.248;19.032;2022-10-26T10:33:58;98677.81;;;16.22;62.13
40918;BME280;26644;50.248;19.032;2022-10-26T10:37:00;98674.13;;;16.13;62.35
40918;BME280;26644;50.248;19.032;2022-10-26T10:40:06;98674.66;;;16.15;62.47
40918;BME280;26644;50.248;19.032;2022-10-26T10:43:12;98676.91;;;16.13;62.88
40918;BME280;26644;50.248;19.032;2022-10-26T10:46:20;98633.25;;;15.96;62.92
40918;BME280;26644;50.248;19.032;2022-10-26T10:49:25;98664.22;;;16.12;63.24
40918;BME280;26644;50.248;19.032;2022-10-26T10:52:29;98676.31;;;16.16;63.13
40918;BME280;26644;50.248;19.032;2022-10-26T10:55:33;98671.06;;;16.15;62.71
40918;BME280;26644;50.248;19.032;2022-10-26T10:58:42;98674.75;;;16.10;62.83
40918;BME280;26644;50.248;19.032;2022-10-26T11:01:47;98670.34;;;16.09;62.47
40918;BME280;26644;50.248;19.032;2022-10-26T11:04:59;98666.66;;;16.00;62.86
40918;BME280;26644;50.248;19.032;2022-10-26T11:08:08;98671.28;;;15.90;63.05
40918;BME280;26644;50.248;19.032;2022-10-26T11:11:16;98674.69;;;15.87;63.55
40918;BME280;26644;50.248;19.032;2022-10-26T11:14:22;98677.66;;;15.91;63.71
40918;BME280;26644;50.248;19.032;2022-10-26T11:17:29;98589.19;;;15.44;63.66
40918;BME280;26644;50.248;19.032;2022-10-26T11:20:35;98654.72;;;15.76;63.63
40918;BME280;26644;50.248;19.032;2022-10-26T11:23:43;98678.69;;;15.81;63.30
40918;BME280;26644;50.248;19.032;2022-10-26T11:26:50;98659.75;;;15.60;63.45
40918;BME280;26644;50.248;19.032;2022-10-26T11:30:00;98661.97;;;15.58;63.83
40918;BME280;26644;50.248;19.032;2022-10-26T11:33:08;98677.97;;;15.75;64.00
40918;BME280;26644;50.248;19.032;2022-10-26T11:36:15;98673.16;;;15.81;63.88
40918;BME280;26644;50.248;19.032;2022-10-26T11:39:23;98679.81;;;15.80;64.02
40918;BME280;26644;50.248;19.032;2022-10-26T11:42:30;98631.03;;;15.56;64.02
40918;BME280;26644;50.248;19.032;2022-10-26T11:45:38;98672.94;;;15.91;63.72
40918;BME280;26644;50.248;19.032;2022-10-26T11:48:44;98675.72;;;15.91;63.86
40918;BME280;26644;50.248;19.032;2022-10-26T11:51:51;98643.22;;;15.83;63.96
40918;BME280;26644;50.248;19.032;2022-10-26T11:54:55;98664.22;;;15.98;63.69
40918;BME280;26644;50.248;19.032;2022-10-26T11:58:02;98673.13;;;16.09;63.63
40918;BME280;26644;50.248;19.032;2022-10-26T12:01:08;98666.13;;;16.11;63.49
40918;BME280;26644;50.248;19.032;2022-10-26T12:04:11;98666.03;;;16.17;63.30
40918;BME280;26644;50.248;19.032;2022-10-26T12:07:19;98651.16;;;16.13;63.37
40918;BME280;26644;50.248;19.032;2022-10-26T12:10:26;98650.94;;;16.23;63.28
40918;BME280;26644;50.248;19.032;2022-10-26T12:13:34;98663.63;;;16.38;62.87
40918;BME280;26644;50.248;19.032;2022-10-26T12:16:43;98649.38;;;16.31;62.80
40918;BME280;26644;50.248;19.032;2022-10-26T12:19:50;98669.66;;;16.54;62.78
40918;BME280;26644;50.248;19.032;2022-10-26T12:22:55;98648.91;;;16.51;62.64
40918;BME280;26644;50.248;19.032;2022-10-26T12:29:46;98656.88;;;16.67;62.44
40918;BME280;26644;50.248;19.032;2022-10-26T12:32:51;98677.72;;;16.87;62.44
40918;BME280;26644;50.248;19.032;2022-10-26T12:35:53;98677.28;;;16.93;62.16
40918;BME280;26644;50.248;19.032;2022-10-26T12:38:56;98673.00;;;16.87;61.53
40918;BME280;26644;50.248;19.032;2022-10-26T12:42:10;98667.78;;;16.86;61.73
40918;BME280;26644;50.248;19.032;2022-10-26T12:45:29;98667.91;;;16.81;61.87
40918;BME280;26644;50.248;19.032;2022-10-26T12:48:38;98595.78;;;16.35;61.77
40918;BME280;26644;50.248;19.032;2022-10-26T12:51:41;98662.78;;;16.74;61.85
40918;BME280;26644;50.248;19.032;2022-10-26T12:54:48;98661.91;;;16.65;61.80
40918;BME280;26644;50.248;19.032;2022-10-26T12:57:58;98653.41;;;16.61;59.74
40918;BME280;26644;50.248;19.032;2022-10-26T13:04:49;98657.63;;;16.58;60.68
40918;BME280;26644;50.248;19.032;2022-10-26T13:08:00;98615.19;;;16.35;61.02
40918;BME280;26644;50.248;19.032;2022-10-26T13:11:05;98621.41;;;16.41;60.90
40918;BME280;26644;50.248;19.032;2022-10-26T13:14:18;98657.94;;;16.57;61.10
40918;BME280;26644;50.248;19.032;2022-10-26T13:17:24;98653.22;;;16.57;61.48
40918;BME280;26644;50.248;19.032;2022-10-26T13:20:29;98656.69;;;16.63;61.26
40918;BME280;26644;50.248;19.032;2022-10-26T13:23:33;98659.13;;;16.65;60.97
40918;BME280;26644;50.248;19.032;2022-10-26T13:27:20;98654.72;;;16.64;59.83
40918;BME280;26644;50.248;19.032;2022-10-26T13:30:46;98654.91;;;16.67;59.86
40918;BME280;26644;50.248;19.032;2022-10-26T13:33:50;98659.44;;;16.63;59.81
40918;BME280;26644;50.248;19.032;2022-10-26T13:37:00;98657.75;;;16.53;59.69
40918;BME280;26644;50.248;19.032;2022-10-26T13:40:04;98664.09;;;16.54;58.07
40918;BME280;26644;50.248;19.032;2022-10-26T13:43:14;98647.75;;;16.30;59.93
40918;BME280;26644;50.248;19.032;2022-10-26T13:46:24;98669.38;;;16.41;60.16
40918;BME280;26644;50.248;19.032;2022-10-26T13:49:31;98670.91;;;16.34;60.22
40918;BME280;26644;50.248;19.032;2022-10-26T13:52:36;98671.03;;;16.28;60.22
40918;BME280;26644;50.248;19.032;2022-10-26T13:55:47;98670.34;;;16.23;60.19
40918;BME280;26644;50.248;19.032;2022-10-26T13:58:57;98663.91;;;16.14;60.77
40918;BME280;26644;50.248;19.032;2022-10-26T14:02:14;98670.97;;;16.06;60.84
40918;BME280;26644;50.248;19.032;2022-10-26T14:05:18;98674.47;;;15.98;61.01
40918;BME280;26644;50.248;19.032;2022-10-26T14:08:20;98671.28;;;15.90;61.27
40918;BME280;26644;50.248;19.032;2022-10-26T14:11:29;98662.06;;;15.81;61.77
40918;BME280;26644;50.248;19.032;2022-10-26T14:14:34;98647.94;;;15.69;61.87
40918;BME280;26644;50.248;19.032;2022-10-26T14:17:36;98667.50;;;15.86;61.80
40918;BME280;26644;50.248;19.032;2022-10-26T14:20:40;98665.16;;;15.80;61.95
40918;BME280;26644;50.248;19.032;2022-10-26T14:23:47;98662.19;;;15.76;61.99
40918;BME280;26644;50.248;19.032;2022-10-26T14:26:50;98383.59;;;13.95;61.80
40918;BME280;26644;50.248;19.032;2022-10-26T14:29:53;98644.34;;;15.54;61.89
40918;BME280;26644;50.248;19.032;2022-10-26T14:32:56;98649.78;;;15.59;62.14
40918;BME280;26644;50.248;19.032;2022-10-26T14:35:59;98644.56;;;15.58;62.24
40918;BME280;26644;50.248;19.032;2022-10-26T14:39:04;98673.66;;;15.69;62.41
40918;BME280;26644;50.248;19.032;2022-10-26T14:42:11;98654.78;;;15.43;62.50
40918;BME280;26644;50.248;19.032;2022-10-26T14:45:22;98674.78;;;15.54;62.65
40918;BME280;26644;50.248;19.032;2022-10-26T14:48:27;98685.66;;;15.51;62.92
40918;BME280;26644;50.248;19.032;2022-10-26T14:51:34;98667.69;;;15.34;63.26
40918;BME280;26644;50.248;19.032;2022-10-26T14:54:36;98687.53;;;15.36;63.34
40918;BME280;26644;50.248;19.032;2022-10-26T14:57:39;98686.50;;;15.32;63.43
40918;BME280;26644;50.248;19.032;2022-10-26T15:00:42;98665.88;;;15.10;63.81
40918;BME280;26644;50.248;19.032;2022-10-26T15:03:47;98683.72;;;15.18;63.70
40918;BME280;26644;50.248;19.032;2022-10-26T15:06:51;98692.13;;;15.13;63.93
40918;BME280;26644;50.248;19.032;2022-10-26T15:09:53;98697.50;;;15.04;64.23
40918;BME280;26644;50.248;19.032;2022-10-26T15:12:55;98609.19;;;14.47;64.16
40918;BME280;26644;50.248;19.032;2022-10-26T15:16:05;98698.81;;;14.93;64.48
40918;BME280;26644;50.248;19.032;2022-10-26T15:19:09;98699.22;;;14.86;64.40
40918;BME280;26644;50.248;19.032;2022-10-26T15:22:20;98691.88;;;14.76;64.62
40918;BME280;26644;50.248;19.032;2022-10-26T15:25:24;98701.91;;;14.72;64.93
40918;BME280;26644;50.248;19.032;2022-10-26T15:28:29;98698.41;;;14.67;65.17
40918;BME280;26644;50.248;19.032;2022-10-26T15:31:32;98676.59;;;14.46;65.33
40918;BME280;26644;50.248;19.032;2022-10-26T15:34:34;98710.44;;;14.57;65.49
40918;BME280;26644;50.248;19.032;2022-10-26T15:37:38;98691.59;;;14.40;65.68
40918;BME280;26644;50.248;19.032;2022-10-26T15:40:41;98708.44;;;14.43;65.84
40918;BME280;26644;50.248;19.032;2022-10-26T15:43:45;98717.34;;;14.35;66.16
40918;BME280;26644;50.248;19.032;2022-10-26T15:46:48;98634.75;;;13.76;66.20
40918;BME280;26644;50.248;19.032;2022-10-26T15:49:50;98716.41;;;14.21;66.58
40918;BME280;26644;50.248;19.032;2022-10-26T15:52:58;98691.91;;;13.95;66.75
40918;BME280;26644;50.248;19.032;2022-10-26T15:56:01;98704.44;;;13.87;67.36
40918;BME280;26644;50.248;19.032;2022-10-26T15:59:12;98721.41;;;13.75;67.96
40918;BME280;26644;50.248;19.032;2022-10-26T16:02:15;98712.47;;;13.59;68.25
40918;BME280;26644;50.248;19.032;2022-10-26T16:05:17;98712.34;;;13.46;68.40
40918;BME280;26644;50.248;19.032;2022-10-26T16:08:21;98713.97;;;13.47;68.79
40918;BME280;26644;50.248;19.032;2022-10-26T16:11:23;98705.13;;;13.20;69.06
40918;BME280;26644;50.248;19.032;2022-10-26T16:14:24;98735.22;;;13.17;69.62
40918;BME280;26644;50.248;19.032;2022-10-26T16:17:26;98731.75;;;13.01;70.07
40918;BME280;26644;50.248;19.032;2022-10-26T16:20:28;98728.81;;;12.87;70.53
40918;BME280;26644;50.248;19.032;2022-10-26T16:23:31;98722.28;;;12.77;70.96